Time;durP1;ratioP1;P1;durP2;ratioP2;P2;SDS_P1;SDS_P2;PMS_P1;PMS_P2;Temp;Humidity;BMP_temperature;BMP_pressure;BME280_temperature;BME280_humidity;BME280_pressure;Samples;Min_cycle;Max_cycle;Signal;HPM_P1;HPM_P2
2022/03/18 00:01:48;;;;;;;6.22;4.18;;;;;;;2.34;73.64;103743.69;5037234;28;20025;-86
2022/03/18 00:04:13;;;;;;;7.93;4.70;;;;;;;2.33;73.16;103738.41;5037520;28;20381;-87
2022/03/18 00:06:40;;;;;;;6.60;4.38;;;;;;;2.31;73.37;103743.84;5053757;28;20035;-85
2022/03/18 00:09:06;;;;;;;8.05;4.80;;;;;;;2.32;73.34;103752.75;5055035;28;20037;-86
2022/03/18 00:11:31;;;;;;;6.95;4.32;;;;;;;2.32;73.12;103755.44;5004413;28;20484;-85
2022/03/18 00:13:58;;;;;;;7.30;5.00;;;;;;;2.27;73.06;103761.06;5037327;28;20040;-86
2022/03/18 00:16:26;;;;;;;8.68;4.70;;;;;;;2.26;73.29;103757.53;5054907;28;20029;-86
2022/03/18 00:18:51;;;;;;;10.18;5.05;;;;;;;2.24;73.27;103755.88;5053146;28;20432;-86
2022/03/18 00:21:17;;;;;;;8.15;4.75;;;;;;;2.22;73.04;103755.97;5036736;28;20033;-87
2022/03/18 00:23:43;;;;;;;9.52;5.18;;;;;;;2.18;73.24;103769.63;5053273;28;20028;-86
2022/03/18 00:26:08;;;;;;;7.00;4.75;;;;;;;2.13;73.08;103766.34;5053593;28;20029;-86
2022/03/18 00:28:37;;;;;;;7.05;4.57;;;;;;;2.09;72.86;103758.47;5054387;28;20036;-86
2022/03/18 00:31:03;;;;;;;7.88;5.28;;;;;;;2.05;73.91;103762.31;5020401;28;20132;-86
2022/03/18 00:33:29;;;;;;;6.45;4.72;;;;;;;1.93;73.98;103750.50;5020225;28;20481;-85
2022/03/18 00:35:57;;;;;;;6.30;4.43;;;;;;;1.83;74.34;103761.78;5036921;28;20037;-86
2022/03/18 00:38:23;;;;;;;6.43;4.60;;;;;;;1.78;74.54;103756.69;5053217;28;20033;-86
2022/03/18 00:40:50;;;;;;;5.95;4.55;;;;;;;1.72;75.23;103765.06;5054028;28;20029;-86
2022/03/18 00:43:16;;;;;;;6.93;4.53;;;;;;;1.65;76.09;103761.00;5036823;28;20124;-85
2022/03/18 00:45:42;;;;;;;6.43;4.30;;;;;;;1.58;75.49;103763.16;5052721;28;20116;-86
2022/03/18 00:53:35;;;;;;;8.02;4.65;;;;;;;1.52;75.71;103780.41;5039418;28;20527;-85
2022/03/18 00:56:01;;;;;;;8.15;4.78;;;;;;;1.51;75.50;103780.50;5054190;28;20052;-85
2022/03/18 00:58:26;;;;;;;9.00;4.50;;;;;;;1.52;75.03;103791.13;5019777;28;20395;-86
2022/03/18 01:00:52;;;;;;;5.57;4.40;;;;;;;1.51;75.43;103784.03;5052852;28;20029;-85
2022/03/18 01:03:19;;;;;;;7.28;4.80;;;;;;;1.50;75.55;103784.13;5054051;28;20029;-86
2022/03/18 01:05:44;;;;;;;7.85;4.65;;;;;;;1.49;75.08;103795.75;5052680;28;20453;-86
2022/03/18 01:08:10;;;;;;;6.68;4.45;;;;;;;1.45;74.95;103797.75;5052890;28;20067;-86
2022/03/18 01:10:36;;;;;;;7.03;4.72;;;;;;;1.43;75.09;103804.13;5052865;28;20385;-86
2022/03/18 01:13:02;;;;;;;6.30;4.60;;;;;;;1.40;75.62;103810.50;5036167;28;20033;-86
2022/03/18 01:15:28;;;;;;;6.13;4.57;;;;;;;1.35;75.70;103813.44;5036829;28;20024;-86
2022/03/18 01:17:54;;;;;;;7.43;4.57;;;;;;;1.34;75.98;103809.00;5036659;28;20124;-86
2022/03/18 01:20:19;;;;;;;7.78;4.35;;;;;;;1.31;75.65;103808.31;5053491;28;20075;-85
2022/03/18 01:22:45;;;;;;;7.80;5.18;;;;;;;1.30;75.95;103803.91;5052708;28;20078;-86
2022/03/18 01:25:10;;;;;;;8.55;5.32;;;;;;;1.25;76.05;103805.97;5019276;28;20044;-86
2022/03/18 01:27:36;;;;;;;9.52;5.70;;;;;;;1.21;76.51;103806.16;5020194;28;20040;-86
2022/03/18 01:30:01;;;;;;;9.10;6.03;;;;;;;1.18;77.02;103798.28;5035616;28;20061;-86
2022/03/18 01:32:27;;;;;;;10.27;6.30;;;;;;;1.13;76.86;103792.31;5052039;28;20496;-86
2022/03/18 01:34:54;;;;;;;11.95;6.95;;;;;;;1.10;76.70;103799.63;5052889;28;20033;-86
2022/03/18 01:37:19;;;;;;;10.32;6.13;;;;;;;1.05;78.02;103800.72;5052343;28;20029;-86
2022/03/18 01:39:45;;;;;;;12.13;6.35;;;;;;;1.03;77.60;103799.97;5052314;28;20050;-86
2022/03/18 01:42:10;;;;;;;11.00;6.88;;;;;;;1.03;77.92;103796.41;5052487;28;20029;-86
2022/03/18 01:44:41;;;;;;;10.93;6.60;;;;;;;1.01;77.67;103799.16;5035625;28;20397;-86
2022/03/18 01:47:07;;;;;;;10.35;6.65;;;;;;;0.99;78.10;103805.53;5051926;28;20021;-86
2022/03/18 01:49:35;;;;;;;10.07;6.28;;;;;;;0.97;78.33;103804.75;5052491;28;20571;-86
2022/03/18 01:52:01;;;;;;;12.63;6.47;;;;;;;0.96;77.94;103808.34;5035414;28;20063;-84
2022/03/18 01:54:46;;;;;;;10.10;6.43;;;;;;;0.94;79.06;103807.59;5053110;28;20045;-84
2022/03/18 01:57:14;;;;;;;10.82;6.10;;;;;;;0.91;78.83;103813.09;5053169;28;20501;-83
2022/03/18 01:59:42;;;;;;;9.00;5.80;;;;;;;0.88;78.93;103811.44;5021244;28;20033;-84
2022/03/18 02:02:10;;;;;;;8.90;5.45;;;;;;;0.82;78.51;103799.25;5039129;28;20036;-83
2022/03/18 02:04:36;;;;;;;8.93;5.80;;;;;;;0.79;77.81;103801.22;5023154;28;20044;-83
2022/03/18 02:07:03;;;;;;;8.70;5.65;;;;;;;0.76;78.24;103807.56;5057671;28;20029;-83
2022/03/18 02:09:30;;;;;;;7.82;5.10;;;;;;;0.76;78.24;103817.41;5055651;28;20403;-83
2022/03/18 02:11:55;;;;;;;10.48;5.82;;;;;;;0.74;78.61;103809.47;5023026;28;20465;-84
2022/03/18 02:14:41;;;;;;;7.00;5.18;;;;;;;0.75;78.28;103813.00;5039235;28;20067;-83
2022/03/18 02:17:08;;;;;;;7.53;5.43;;;;;;;0.72;78.13;103818.50;5038960;28;20047;-84
2022/03/18 02:19:36;;;;;;;8.05;5.50;;;;;;;0.70;78.48;103822.13;5055737;28;20115;-83
2022/03/18 02:22:07;;;;;;;11.27;5.45;;;;;;;0.68;78.64;103831.19;5055812;28;20033;-83
2022/03/18 02:24:33;;;;;;;7.45;5.07;;;;;;;0.67;78.23;103826.75;5055675;28;20036;-84
2022/03/18 02:26:58;;;;;;;10.98;5.80;;;;;;;0.65;78.94;103818.81;5056987;28;20025;-83
2022/03/18 02:29:24;;;;;;;8.65;5.45;;;;;;;0.64;79.08;103818.91;5038785;28;20413;-83
2022/03/18 02:31:52;;;;;;;7.85;5.20;;;;;;;0.62;80.04;103818.97;5055353;28;20025;-83
2022/03/18 02:34:18;;;;;;;7.40;4.68;;;;;;;0.58;79.36;103813.88;5039797;28;20524;-84
2022/03/18 02:36:43;;;;;;;9.25;5.30;;;;;;;0.56;79.01;103826.41;5038924;28;20128;-84
2022/03/18 02:39:09;;;;;;;9.23;6.03;;;;;;;0.54;79.01;103839.84;5056734;28;20033;-84
2022/03/18 02:41:37;;;;;;;7.55;5.07;;;;;;;0.50;80.02;103836.50;5022393;28;20040;-83
2022/03/18 02:44:02;;;;;;;6.43;4.55;;;;;;;0.48;79.98;103833.00;5006187;28;20037;-84
2022/03/18 02:46:32;;;;;;;7.15;4.70;;;;;;;0.44;78.82;103841.25;5022239;28;20094;-84
2022/03/18 02:48:59;;;;;;;6.97;4.90;;;;;;;0.42;79.08;103838.66;5007107;28;20044;-84
2022/03/18 02:51:24;;;;;;;7.88;5.10;;;;;;;0.42;78.50;103837.81;5022185;28;20136;-84
2022/03/18 02:53:51;;;;;;;9.02;5.18;;;;;;;0.41;78.88;103833.38;5022904;28;20181;-84
2022/03/18 02:56:17;;;;;;;5.60;4.18;;;;;;;0.41;79.73;103842.25;5038281;28;20036;-84
2022/03/18 02:58:43;;;;;;;5.78;4.28;;;;;;;0.40;78.47;103832.53;5055207;28;20028;-84
2022/03/18 03:01:08;;;;;;;7.45;4.90;;;;;;;0.40;79.90;103840.56;5022241;28;20471;-83
2022/03/18 03:03:37;;;;;;;7.22;4.90;;;;;;;0.39;79.50;103849.50;5039261;28;20071;-84
2022/03/18 03:08:46;;;;;;;5.93;4.47;;;;;;;0.38;80.12;103852.25;5056813;28;20095;-84
2022/03/18 03:11:12;;;;;;;7.55;4.57;;;;;;;0.38;80.07;103852.25;5037300;28;20037;-84
2022/03/18 03:13:37;;;;;;;7.28;4.70;;;;;;;0.38;80.31;103861.09;5038304;28;20108;-83
2022/03/18 03:16:03;;;;;;;7.15;4.60;;;;;;;0.38;79.78;103865.59;5005741;28;20449;-83
2022/03/18 03:18:29;;;;;;;7.03;4.80;;;;;;;0.36;79.84;103867.50;5037960;28;20037;-83
2022/03/18 03:20:55;;;;;;;7.47;4.95;;;;;;;0.36;80.46;103870.16;5037745;28;20037;-84
2022/03/18 03:23:23;;;;;;;9.43;5.07;;;;;;;0.32;80.32;103872.09;5038150;28;20032;-83
2022/03/18 03:25:50;;;;;;;6.13;4.47;;;;;;;0.32;80.38;103872.94;5054518;28;20028;-83
2022/03/18 03:28:17;;;;;;;7.93;4.90;;;;;;;0.30;80.67;103869.50;5054299;28;20025;-83
2022/03/18 03:30:42;;;;;;;8.27;4.68;;;;;;;0.29;80.31;103875.78;5054492;28;20068;-83
2022/03/18 03:33:08;;;;;;;7.22;4.55;;;;;;;0.29;79.41;103881.13;5038170;28;20540;-84
2022/03/18 03:35:34;;;;;;;7.50;4.60;;;;;;;0.28;79.80;103873.19;5038529;28;20033;-83
2022/03/18 03:37:59;;;;;;;8.15;4.88;;;;;;;0.25;80.85;103874.22;5055367;28;20033;-84
2022/03/18 03:40:25;;;;;;;6.28;4.47;;;;;;;0.22;80.44;103863.66;5054323;28;20033;-84
2022/03/18 03:42:50;;;;;;;7.10;4.70;;;;;;;0.27;78.76;103876.81;5021952;28;20040;-83
2022/03/18 03:45:16;;;;;;;7.65;4.60;;;;;;;0.20;79.94;103880.69;5037292;28;20024;-83
2022/03/18 03:47:42;;;;;;;5.65;4.28;;;;;;;0.16;80.39;103888.88;5055212;28;20040;-84
2022/03/18 03:50:09;;;;;;;8.23;4.85;;;;;;;0.17;79.03;103893.25;5037453;28;20037;-84
2022/03/18 03:52:38;;;;;;;7.30;4.82;;;;;;;0.15;79.84;103895.13;5053857;28;20055;-83
2022/03/18 03:55:05;;;;;;;7.93;4.60;;;;;;;0.11;80.42;103887.34;5054733;28;20033;-83
2022/03/18 03:57:31;;;;;;;6.90;4.40;;;;;;;0.06;81.23;103892.91;5037335;28;20025;-83
2022/03/18 03:59:56;;;;;;;6.47;4.68;;;;;;;0.02;81.44;103896.66;5037284;28;20115;-83
2022/03/18 04:02:22;;;;;;;7.35;4.38;;;;;;;-0.01;81.18;103902.13;5053873;28;20043;-83
2022/03/18 04:04:49;;;;;;;5.63;4.00;;;;;;;-0.04;81.62;103900.47;5053557;28;20025;-83
2022/03/18 04:07:17;;;;;;;5.35;4.50;;;;;;;-0.02;80.46;103914.59;5037190;28;20033;-83
2022/03/18 04:09:43;;;;;;;8.20;4.35;;;;;;;-0.02;81.01;103919.94;5053833;28;20527;-82
2022/03/18 04:12:08;;;;;;;7.22;4.43;;;;;;;-0.01;79.65;103916.34;5020611;28;20029;-83
2022/03/18 04:14:36;;;;;;;8.07;4.97;;;;;;;0.01;80.69;103918.06;5053656;28;20037;-83
2022/03/18 04:17:02;;;;;;;8.77;5.10;;;;;;;-0.01;80.54;103918.16;5020883;28;20028;-83
2022/03/18 04:19:28;;;;;;;8.57;4.82;;;;;;;-0.01;80.30;103923.47;5037049;28;20073;-83
2022/03/18 04:21:56;;;;;;;6.70;4.88;;;;;;;-0.03;80.59;103920.00;5053881;28;20372;-82
2022/03/18 04:24:23;;;;;;;7.03;4.80;;;;;;;-0.05;80.60;103927.22;5053557;28;20527;-83
2022/03/18 04:26:49;;;;;;;7.22;4.90;;;;;;;-0.06;80.43;103929.03;5021112;28;20082;-82
2022/03/18 04:29:15;;;;;;;7.78;5.13;;;;;;;-0.09;80.13;103936.31;5053103;28;20028;-82
2022/03/18 04:31:40;;;;;;;7.18;4.40;;;;;;;-0.10;79.79;103945.28;5019964;28;20048;-83
2022/03/18 04:34:08;;;;;;;7.63;4.88;;;;;;;-0.12;80.56;103941.78;5053617;28;20028;-83
2022/03/18 04:36:34;;;;;;;6.20;4.47;;;;;;;-0.16;81.15;103946.41;5053230;28;20056;-83
2022/03/18 04:39:01;;;;;;;7.53;4.60;;;;;;;-0.16;80.35;103950.84;5036257;28;20114;-83
2022/03/18 04:41:27;;;;;;;7.40;4.70;;;;;;;-0.19;80.88;103949.22;5036246;28;20033;-83
2022/03/18 04:43:52;;;;;;;7.05;4.60;;;;;;;-0.21;80.88;103951.06;5036553;28;20119;-82
2022/03/18 04:46:18;;;;;;;6.53;4.43;;;;;;;-0.23;81.01;103950.28;5036246;28;20480;-83
2022/03/18 04:48:43;;;;;;;6.90;4.50;;;;;;;-0.27;81.05;103948.66;5020020;28;20457;-83
2022/03/18 04:51:08;;;;;;;8.65;4.13;;;;;;;-0.31;81.61;103947.97;5019724;28;20465;-83
2022/03/18 04:53:36;;;;;;;5.25;3.97;;;;;;;-0.33;81.81;103952.47;5020069;28;20037;-83
2022/03/18 04:56:01;;;;;;;5.18;4.05;;;;;;;-0.35;82.03;103951.69;5036804;28;20412;-83
2022/03/18 04:58:27;;;;;;;5.57;4.00;;;;;;;-0.36;81.49;103958.81;5052552;28;20040;-82
2022/03/18 05:00:52;;;;;;;6.22;4.18;;;;;;;-0.36;81.54;103958.81;5036257;28;20041;-83
2022/03/18 05:03:18;;;;;;;6.55;4.43;;;;;;;-0.36;82.04;103963.28;5003630;28;20124;-83
2022/03/18 05:05:43;;;;;;;8.68;4.50;;;;;;;-0.38;82.66;103963.34;5036362;28;20128;-83
2022/03/18 05:08:08;;;;;;;7.95;4.40;;;;;;;-0.39;82.42;103961.59;5019876;28;20075;-83
2022/03/18 05:10:34;;;;;;;8.25;4.40;;;;;;;-0.41;82.72;103974.16;5052704;28;20063;-83
2022/03/18 05:13:00;;;;;;;7.85;3.92;;;;;;;-0.45;82.35;103974.38;5036384;28;20466;-83
2022/03/18 05:15:25;;;;;;;6.15;4.05;;;;;;;-0.47;82.27;103979.75;5052328;28;20139;-83
2022/03/18 05:17:54;;;;;;;5.82;4.20;;;;;;;-0.45;82.68;103979.69;5036327;28;20518;-84
2022/03/18 05:20:20;;;;;;;9.48;4.30;;;;;;;-0.45;83.51;103985.03;5052284;28;20025;-84
2022/03/18 05:22:46;;;;;;;6.22;4.13;;;;;;;-0.45;83.01;103988.56;5052744;28;20025;-83
2022/03/18 05:25:12;;;;;;;6.68;3.83;;;;;;;-0.44;83.58;103989.44;5053631;28;20500;-83
2022/03/18 05:27:43;;;;;;;5.53;4.20;;;;;;;-0.45;82.31;103993.03;5035850;28;20132;-83
2022/03/18 05:30:14;;;;;;;8.18;4.18;;;;;;;-0.48;82.65;103994.03;5052259;28;20039;-84
2022/03/18 05:32:42;;;;;;;7.40;4.20;;;;;;;-0.52;82.17;103992.41;5035854;28;20082;-83
2022/03/18 05:35:09;;;;;;;5.25;4.15;;;;;;;-0.57;81.49;103994.44;5035320;28;20029;-83
2022/03/18 05:37:37;;;;;;;7.18;4.22;;;;;;;-0.63;82.35;104000.03;5036254;28;20040;-83
2022/03/18 05:40:03;;;;;;;8.85;4.35;;;;;;;-0.66;82.10;103997.50;5053011;28;20033;-84
2022/03/18 05:42:29;;;;;;;8.18;4.40;;;;;;;-0.67;81.37;103995.75;5052086;28;20036;-84
2022/03/18 05:44:56;;;;;;;8.05;4.47;;;;;;;-0.65;81.11;103997.41;5052180;28;20033;-84
2022/03/18 05:47:22;;;;;;;8.27;4.80;;;;;;;-0.64;81.08;104004.47;5035574;28;20033;-83
2022/03/18 05:49:47;;;;;;;9.07;4.88;;;;;;;-0.65;81.60;103994.75;5035746;28;20040;-84
2022/03/18 05:52:15;;;;;;;5.95;4.38;;;;;;;-0.67;81.39;103996.59;5051728;28;20048;-86
2022/03/18 05:54:41;;;;;;;7.40;4.55;;;;;;;-0.67;81.97;104001.94;5053620;28;20044;-86
2022/03/18 05:57:06;;;;;;;7.78;4.80;;;;;;;-0.60;81.02;103989.22;5036210;28;20036;-86
2022/03/18 05:59:33;;;;;;;7.97;4.85;;;;;;;-0.56;80.70;103996.13;5035800;28;20350;-86
2022/03/18 06:02:00;;;;;;;6.93;4.50;;;;;;;-0.50;80.97;103995.91;5052119;28;20119;-86
2022/03/18 06:04:27;;;;;;;8.20;4.72;;;;;;;-0.45;81.81;104007.22;5035375;28;20025;-86
2022/03/18 06:06:53;;;;;;;6.88;4.43;;;;;;;-0.40;81.66;104015.03;5034899;28;20370;-87
2022/03/18 06:12:04;;;;;;;7.35;4.85;;;;;;;-0.29;81.44;104019.94;5038731;28;20102;-86
2022/03/18 06:14:31;;;;;;;8.07;4.78;;;;;;;-0.28;81.53;104017.19;5051843;28;20021;-86
2022/03/18 06:17:01;;;;;;;7.97;4.18;;;;;;;-0.23;82.18;104025.84;5018824;28;20037;-85
2022/03/18 06:19:27;;;;;;;7.22;4.72;;;;;;;-0.19;82.18;104024.81;5052139;28;20025;-86
2022/03/18 06:21:53;;;;;;;8.18;4.65;;;;;;;-0.12;82.32;104033.38;5051532;28;20029;-86
2022/03/18 06:24:20;;;;;;;7.15;4.80;;;;;;;-0.06;82.33;104033.16;5051565;28;20021;-86
2022/03/18 06:26:46;;;;;;;7.38;4.53;;;;;;;-0.01;82.16;104039.13;5018627;28;20033;-86
2022/03/18 06:29:12;;;;;;;7.60;4.97;;;;;;;0.05;83.26;104050.50;5051770;28;20044;-86
2022/03/18 06:31:39;;;;;;;6.13;4.50;;;;;;;0.12;83.68;104054.63;5035046;28;20033;-85
2022/03/18 06:34:08;;;;;;;7.72;4.88;;;;;;;0.17;83.43;104047.28;5019162;28;20123;-86
2022/03/18 06:36:34;;;;;;;6.97;4.47;;;;;;;0.22;82.62;104049.72;5018991;28;20037;-86
2022/03/18 06:38:59;;;;;;;8.07;4.60;;;;;;;0.25;82.84;104050.47;5052521;28;20040;-86
2022/03/18 06:41:25;;;;;;;8.88;5.10;;;;;;;0.34;82.73;104042.03;5018652;28;20037;-86
2022/03/18 06:43:51;;;;;;;6.30;4.47;;;;;;;0.40;82.75;104048.91;5053453;28;20033;-86
2022/03/18 06:46:17;;;;;;;5.53;4.25;;;;;;;0.48;83.00;104064.59;5052751;28;20393;-84
2022/03/18 06:48:43;;;;;;;6.13;4.40;;;;;;;0.57;83.34;104055.28;5038183;28;20469;-82
2022/03/18 06:51:09;;;;;;;6.93;4.55;;;;;;;0.63;83.48;104066.56;5055097;28;20029;-81
2022/03/18 06:53:40;;;;;;;9.20;5.13;;;;;;;0.73;83.89;104064.31;5056507;28;20106;-82
2022/03/18 06:56:05;;;;;;;8.50;4.63;;;;;;;0.81;83.04;104066.63;5055457;28;20381;-82
2022/03/18 06:58:31;;;;;;;6.90;5.05;;;;;;;0.89;83.78;104072.50;5038524;28;20032;-84
2022/03/18 07:00:57;;;;;;;6.38;4.50;;;;;;;0.99;84.07;104079.16;5054701;28;20029;-83
2022/03/18 07:03:23;;;;;;;5.88;4.32;;;;;;;1.08;83.66;104074.28;5054984;28;20479;-84
2022/03/18 07:05:48;;;;;;;7.53;5.13;;;;;;;1.16;84.41;104069.44;5005397;28;20102;-84
2022/03/18 07:08:14;;;;;;;6.68;4.80;;;;;;;1.28;84.53;104081.34;5055976;28;20024;-83
2022/03/18 07:10:40;;;;;;;6.82;4.68;;;;;;;1.37;84.74;104076.44;5037737;28;20384;-84
2022/03/18 07:13:05;;;;;;;6.38;4.80;;;;;;;1.46;84.06;104080.47;5038288;28;20040;-84
2022/03/18 07:15:31;;;;;;;7.45;4.88;;;;;;;1.55;84.65;104077.31;5021020;28;20041;-83
2022/03/18 07:17:59;;;;;;;7.43;4.93;;;;;;;1.65;84.81;104080.38;5039884;28;20036;-84
2022/03/18 07:20:33;;;;;;;7.53;5.25;;;;;;;1.76;84.31;104087.91;5037563;28;20029;-84
2022/03/18 07:23:09;;;;;;;6.38;4.90;;;;;;;1.89;84.93;104083.66;5037169;28;20044;-84
2022/03/18 07:25:40;;;;;;;7.53;5.00;;;;;;;2.01;84.85;104092.88;5021568;28;20128;-84
2022/03/18 07:28:08;;;;;;;6.43;5.13;;;;;;;2.13;85.55;104094.03;5055415;28;20055;-84
2022/03/18 07:30:38;;;;;;;7.72;4.35;;;;;;;2.27;84.95;104090.63;5054422;28;20116;-84
2022/03/18 07:33:04;;;;;;;7.43;4.80;;;;;;;2.40;85.18;104088.19;5055330;28;20112;-84
2022/03/18 07:35:30;;;;;;;6.28;4.50;;;;;;;2.52;85.14;104092.00;5021108;28;20465;-83
2022/03/18 07:37:56;;;;;;;5.70;4.20;;;;;;;2.65;84.36;104098.44;5053817;28;20029;-83
2022/03/18 07:40:22;;;;;;;6.57;4.32;;;;;;;2.76;84.46;104103.22;5053429;28;20051;-84
2022/03/18 07:42:50;;;;;;;6.57;4.28;;;;;;;2.88;84.41;104115.97;5054196;28;20033;-83
2022/03/18 07:45:27;;;;;;;5.80;4.10;;;;;;;3.01;83.49;104113.44;5053692;28;20028;-84
2022/03/18 07:47:58;;;;;;;8.38;4.05;;;;;;;3.12;84.20;104126.28;5053588;28;20029;-84
2022/03/18 07:50:27;;;;;;;5.20;3.78;;;;;;;3.25;83.63;104135.38;5037649;28;20120;-84
2022/03/18 07:53:01;;;;;;;4.47;3.72;;;;;;;3.36;82.51;104136.59;5053102;28;20055;-83
2022/03/18 07:55:28;;;;;;;4.97;3.80;;;;;;;3.46;82.60;104133.28;5053883;28;20527;-83
2022/03/18 07:57:55;;;;;;;7.32;3.60;;;;;;;3.56;82.76;104132.75;5036410;28;20087;-83
2022/03/18 08:00:22;;;;;;;5.70;4.00;;;;;;;3.67;82.03;104143.75;5053434;28;20025;-82
2022/03/18 08:02:49;;;;;;;5.88;4.25;;;;;;;3.78;82.14;104140.44;5037087;28;20544;-83
2022/03/18 08:05:15;;;;;;;7.20;4.28;;;;;;;3.88;81.18;104138.94;5053874;28;20032;-83
2022/03/18 08:07:41;;;;;;;5.65;3.88;;;;;;;3.99;81.61;104135.63;5037859;28;20044;-82
2022/03/18 08:10:09;;;;;;;9.82;4.43;;;;;;;4.08;81.13;104142.28;5053684;28;20028;-82
2022/03/18 08:12:35;;;;;;;7.63;4.13;;;;;;;4.20;80.04;104146.91;5053567;28;20127;-82
2022/03/18 08:15:05;;;;;;;9.50;4.65;;;;;;;4.31;80.03;104147.13;5036775;28;20086;-82
2022/03/18 08:17:31;;;;;;;7.40;3.90;;;;;;;4.38;79.70;104143.13;5037123;28;20082;-83
2022/03/18 08:19:57;;;;;;;5.75;3.63;;;;;;;4.47;80.02;104140.81;5036517;28;20030;-83
2022/03/18 08:22:22;;;;;;;7.28;3.90;;;;;;;4.55;79.35;104151.97;5036243;28;20029;-82
2022/03/18 08:24:49;;;;;;;6.30;3.90;;;;;;;4.65;78.87;104150.44;5036349;28;20032;-83
2022/03/18 08:27:16;;;;;;;8.00;4.15;;;;;;;4.76;78.40;104151.59;5037000;28;20025;-83
2022/03/18 08:29:42;;;;;;;6.43;3.70;;;;;;;4.86;78.24;104152.75;5037321;28;20040;-82
2022/03/18 08:32:11;;;;;;;6.63;3.40;;;;;;;4.95;77.64;104149.47;5054255;28;20432;-82
2022/03/18 08:34:37;;;;;;;4.22;3.10;;;;;;;5.08;77.03;104158.50;5053137;28;20028;-82
2022/03/18 08:37:05;;;;;;;6.25;3.63;;;;;;;5.18;76.39;104166.88;5052695;28;20426;-82
2022/03/18 08:39:41;;;;;;;8.18;3.95;;;;;;;5.30;75.20;104153.56;5052609;28;20031;-83
2022/03/18 08:42:07;;;;;;;7.40;3.45;;;;;;;5.40;74.95;104168.16;5053725;28;20067;-82
2022/03/18 08:44:33;;;;;;;4.78;3.47;;;;;;;5.49;74.88;104162.16;5036236;28;20029;-82
2022/03/18 08:46:59;;;;;;;4.53;3.20;;;;;;;5.55;74.15;104167.16;5036456;28;20032;-85
2022/03/18 08:49:25;;;;;;;6.18;3.15;;;;;;;5.66;73.59;104173.69;5053142;28;20035;-85
2022/03/18 08:51:51;;;;;;;6.32;3.30;;;;;;;5.74;73.17;104180.28;5049898;28;20064;-85
2022/03/18 08:54:21;;;;;;;5.10;3.17;;;;;;;5.84;72.93;104179.66;5033809;28;20397;-83
2022/03/18 08:56:47;;;;;;;5.35;3.10;;;;;;;5.92;72.59;104197.06;5034161;28;20029;-83
2022/03/18 08:59:15;;;;;;;5.03;2.70;;;;;;;6.04;71.38;104191.81;5000054;28;20404;-82
2022/03/18 09:01:41;;;;;;;4.57;3.05;;;;;;;6.17;70.62;104192.75;5049322;28;20029;-83
2022/03/18 09:04:07;;;;;;;4.25;3.00;;;;;;;6.27;70.48;104195.66;5032486;28;20032;-85
2022/03/18 09:06:32;;;;;;;3.90;2.90;;;;;;;6.37;69.95;104196.78;5048793;28;20033;-83
2022/03/18 09:09:03;;;;;;;3.42;2.78;;;;;;;6.46;69.64;104203.38;5032179;28;20116;-83
2022/03/18 09:11:32;;;;;;;5.30;2.90;;;;;;;6.55;69.36;104205.41;5033347;28;20033;-83
2022/03/18 09:13:57;;;;;;;3.63;2.40;;;;;;;6.67;69.67;104203.69;5033466;28;20029;-82
2022/03/18 09:16:23;;;;;;;5.88;2.80;;;;;;;6.74;66.21;104206.84;5049279;28;20103;-82
2022/03/18 09:18:48;;;;;;;4.18;2.60;;;;;;;6.81;66.88;104209.00;5032367;28;20390;-83
2022/03/18 09:21:13;;;;;;;4.43;2.65;;;;;;;6.90;64.81;104209.34;5032349;28;20532;-82
2022/03/18 09:23:41;;;;;;;5.07;3.17;;;;;;;6.98;65.09;104209.63;5015773;28;20039;-83
2022/03/18 09:26:07;;;;;;;7.47;3.20;;;;;;;7.09;64.33;104214.28;5049158;28;20026;-82
2022/03/18 09:28:32;;;;;;;4.95;2.90;;;;;;;7.19;64.14;104213.50;4999505;28;20080;-82
2022/03/18 09:30:58;;;;;;;5.68;2.78;;;;;;;7.29;63.56;104215.53;5032129;28;20090;-82
2022/03/18 09:33:23;;;;;;;4.35;2.65;;;;;;;7.35;62.86;104217.78;4999620;28;20044;-82
2022/03/18 09:35:49;;;;;;;4.93;2.75;;;;;;;7.44;62.07;104218.97;5000159;28;20045;-82
2022/03/18 09:38:14;;;;;;;5.65;2.72;;;;;;;7.52;62.23;104221.97;5015720;28;20478;-83
2022/03/18 09:40:41;;;;;;;4.07;2.70;;;;;;;7.59;63.21;104222.38;5033843;28;20108;-83
2022/03/18 09:43:08;;;;;;;3.70;2.50;;;;;;;7.66;62.07;104216.44;5032016;28;20041;-85
2022/03/18 09:45:37;;;;;;;2.75;2.28;;;;;;;7.78;62.00;104219.19;5048972;28;20026;-83
2022/03/18 09:48:06;;;;;;;4.32;2.53;;;;;;;7.91;61.50;104214.56;5048700;28;20454;-82
2022/03/18 09:50:32;;;;;;;2.88;2.40;;;;;;;8.03;61.69;104215.50;5048774;28;20037;-82
2022/03/18 09:52:58;;;;;;;4.28;2.55;;;;;;;8.15;61.15;104221.81;5048427;28;20060;-83
2022/03/18 09:55:24;;;;;;;5.20;2.53;;;;;;;8.29;60.27;104218.94;5031937;28;20060;-83
2022/03/18 09:57:50;;;;;;;2.53;2.30;;;;;;;8.40;59.49;104218.97;5032060;28;20042;-83
2022/03/18 10:00:15;;;;;;;3.67;2.30;;;;;;;8.53;57.46;104221.63;5032194;28;20033;-83
2022/03/18 10:02:41;;;;;;;3.60;2.38;;;;;;;8.67;56.04;104223.25;4998809;28;20107;-83
2022/03/18 10:05:14;;;;;;;2.42;1.90;;;;;;;8.81;57.84;104230.28;5032422;28;20056;-82
2022/03/18 10:07:53;;;;;;;3.47;2.20;;;;;;;8.98;56.72;104234.38;5032516;28;20516;-82
2022/03/18 10:10:19;;;;;;;4.28;2.20;;;;;;;9.11;55.65;104231.56;5034026;28;20040;-84
2022/03/18 10:12:47;;;;;;;4.80;2.17;;;;;;;9.23;54.85;104233.28;5031844;28;20064;-85
2022/03/18 10:15:28;;;;;;;3.72;2.00;;;;;;;9.38;57.16;104231.16;5048355;28;20036;-85
2022/03/18 10:17:56;;;;;;;2.83;2.10;;;;;;;9.52;54.60;104237.31;5033478;28;20037;-85
2022/03/18 10:20:38;;;;;;;2.67;1.90;;;;;;;9.72;56.00;104235.69;5033147;28;20095;-85
2022/03/18 10:23:15;;;;;;;2.73;1.80;;;;;;;9.87;54.61;104230.81;5051998;28;20140;-83
2022/03/18 10:25:58;;;;;;;2.25;1.90;;;;;;;10.00;55.13;104235.09;5036577;28;20080;-83
2022/03/18 10:28:35;;;;;;;4.88;1.90;;;;;;;10.12;55.31;104232.34;5019019;28;20037;-83
2022/03/18 10:31:19;;;;;;;2.03;1.90;;;;;;;10.24;55.58;104223.16;5035886;28;20068;-82
2022/03/18 10:39:39;;;;;;;2.97;2.42;;;;;;;10.76;52.59;104228.69;5036255;28;20132;-82
2022/03/18 10:42:10;;;;;;;2.78;1.80;;;;;;;10.90;50.21;104234.78;5035031;28;20025;-83
2022/03/18 10:44:59;;;;;;;3.60;2.00;;;;;;;11.05;54.01;104236.13;5052591;28;20029;-82
2022/03/18 10:47:38;;;;;;;2.83;2.28;;;;;;;11.22;52.02;104234.66;5036506;28;20029;-83
2022/03/18 10:50:29;;;;;;;3.50;1.98;;;;;;;11.36;52.48;104230.69;5036459;28;20029;-82
2022/03/18 10:52:57;;;;;;;3.85;2.13;;;;;;;11.47;48.46;104225.16;5051243;28;20053;-83
2022/03/18 10:55:26;;;;;;;2.67;1.70;;;;;;;11.61;49.01;104228.47;5034890;28;20128;-83
2022/03/18 10:57:56;;;;;;;3.40;2.00;;;;;;;11.81;48.77;104232.94;5052341;28;20045;-85
2022/03/18 11:00:28;;;;;;;2.05;1.63;;;;;;;12.00;47.34;104214.94;5052591;28;20055;-85
2022/03/18 11:02:58;;;;;;;3.63;1.80;;;;;;;12.19;46.78;104230.41;5051890;28;20040;-84
2022/03/18 11:05:29;;;;;;;2.38;1.70;;;;;;;12.41;46.12;104224.66;5035794;28;20125;-82
2022/03/18 11:07:55;;;;;;;2.43;1.43;;;;;;;12.66;46.89;104221.47;5036295;28;20088;-82
2022/03/18 11:13:07;;;;;;;2.95;1.80;;;;;;;13.24;46.47;104204.91;5036626;28;20040;-83
2022/03/18 11:15:40;;;;;;;3.50;1.73;;;;;;;13.55;46.01;104210.06;5051263;28;20022;-83
2022/03/18 11:18:11;;;;;;;3.72;1.90;;;;;;;13.92;44.43;104216.41;5051544;28;20496;-83
2022/03/18 11:20:42;;;;;;;3.83;1.90;;;;;;;14.48;43.50;104212.47;5051576;28;20473;-82
2022/03/18 11:23:24;;;;;;;3.08;1.67;;;;;;;17.15;42.53;104209.91;5035872;28;20073;-83
2022/03/18 11:25:54;;;;;;;2.25;1.48;;;;;;;20.75;34.27;104201.44;5051043;28;20057;-82
2022/03/18 11:28:21;;;;;;;2.08;1.27;;;;;;;23.59;31.54;104195.53;5050786;28;20034;-83
2022/03/18 11:30:48;;;;;;;1.63;1.38;;;;;;;26.16;26.03;104196.91;5034557;28;20037;-83
2022/03/18 11:33:13;;;;;;;2.58;1.70;;;;;;;28.30;23.02;104204.31;5017080;28;20486;-83
2022/03/18 11:35:48;;;;;;;3.78;1.75;;;;;;;29.84;21.11;104196.97;5033839;28;20038;-84
2022/03/18 11:38:28;;;;;;;3.15;1.73;;;;;;;30.87;24.75;104193.97;5035152;28;20021;-83
2022/03/18 11:41:03;;;;;;;2.13;1.58;;;;;;;31.84;18.00;104190.53;5050834;28;20024;-84
2022/03/18 11:43:37;;;;;;;6.22;2.20;;;;;;;32.31;18.11;104188.53;5036289;28;20025;-84
2022/03/18 11:49:05;;;;;;;4.40;2.10;;;;;;;33.49;19.22;104179.53;5034957;28;20066;-84
2022/03/18 11:51:42;;;;;;;3.42;1.70;;;;;;;34.55;16.20;104179.94;5050783;28;20033;-84
2022/03/18 11:54:16;;;;;;;3.33;1.70;;;;;;;35.69;16.89;104174.31;5055639;28;20029;-86